vous aimez ? un don permettra le maintien du site
notre code QR

Notre ancien site Autre version du site

Autre présentation du siteun concentré d'infos sur une page

In Memoriam - 26/08/2020Pascale Declercq + 23/08/2020 Leuven



 

Valid CSS!


Rapports METAR à proximité

   
LFQQ - Lille/Lesquin, France
Distance: SE 22 km
Mise à jour: 10-12-2022 05:00
  
  
   Vent: varie 4 km/h
Vent: varie 4 km/h
visibilité: 1.4 km
LFQQ 100400Z AUTO VRB02KT 1400 0900 R26/1700U R08/1300D BCFG VV/// 01/01 Q1009 NOSIG
EBFN - Koksijde (bel-Af, Belgium
Distance: NNO 42 km
Mise à jour: 10-12-2022 05:25
Brouillard, Partiellement nuageux  
Brouillard, Partiellement nuageux  
   Vent: varie 4 km/h
Vent: varie 4 km/h
Température: -2°C
Point de rosée: -2°C
Humidité: 100%
Baromètre: 1009 hPa
Nuages: Partly Cloudy
visibilité: 3.1 km
Détails des nuages: Peu de nuages 30.5 m,
Partiellement nuageux 1097.3 m
EBFN 100425Z AUTO VRB02KT 3100 BR FEW001/// SCT036/// M02/M02 Q1009 YLO
EBOS - Oostende Airport, Belgium
Distance: N 53 km
Mise à jour: 10-12-2022 05:20
Freezing, Brouillard, Nuageux  
Freezing, Brouillard, Nuageux  
   Vent: Sud 7 km/h
Vent: Sud 7 km/h
Température: -2°C
éolien: -5°C
Point de rosée: -2°C
Humidité: 100%
Baromètre: 1009 hPa
Nuages: Mostly Cloudy
visibilité: 0.4 km
Détails des nuages: Nuageux 30.5 m
EBOS 100420Z 19004KT 0350 R08/0650D R26/0800U FZFG BKN001 M02/M02 Q1009 NOSIG

Script développé par  Saratoga-weather.org Adapté pour le modèle par  Weerstation Leuven

Vous trouverez notre info météo Également à:

UK Metoffice

European Weather Network

Weather Underground

AWEKAS

Citizen Weather Observer Program (CWOP)

HAMweather, WeatherForYou, PWS Weather

Équipement utilisé:

Station de Météo
Vantage Pro2

Programme Météo
cumulus

Ordinateur Météo
Zotac ID41

Fournisseur d'accès Internet
Hébergé par

Vantage Pro2

cumulus

Zotac ID41

Hébergé par